createdAt,value
2017-07-03T00:02:25.574Z,17.20
2017-07-03T00:04:51.572Z,17.20
2017-07-03T00:07:17.511Z,17.30
2017-07-03T00:09:43.442Z,17.30
2017-07-03T00:12:10.112Z,17.30
2017-07-03T00:14:36.090Z,17.30
2017-07-03T00:17:02.053Z,17.30
2017-07-03T00:19:28.011Z,17.30
2017-07-03T00:21:53.947Z,17.30
2017-07-03T00:24:20.672Z,17.30
2017-07-03T00:26:46.619Z,17.30
2017-07-03T00:29:12.557Z,17.30
2017-07-03T00:31:38.493Z,17.20
2017-07-03T00:34:04.397Z,17.20
2017-07-03T00:36:30.335Z,17.10
2017-07-03T00:38:56.275Z,16.90
2017-07-03T00:41:22.249Z,16.90
2017-07-03T00:43:48.198Z,16.90
2017-07-03T00:46:14.160Z,17.00
2017-07-03T00:48:40.073Z,16.90
2017-07-03T00:51:06.053Z,16.90
2017-07-03T00:53:32.039Z,16.80
2017-07-03T00:55:57.980Z,16.80
2017-07-03T00:58:23.940Z,16.80
2017-07-03T01:00:49.895Z,16.80
2017-07-03T01:03:15.843Z,16.80
2017-07-03T01:05:41.771Z,16.80
2017-07-03T01:08:07.738Z,16.80
2017-07-03T01:10:33.656Z,16.80
2017-07-03T01:12:59.592Z,16.70
2017-07-03T01:15:25.591Z,16.80
2017-07-03T01:17:51.553Z,16.70
2017-07-03T01:20:17.489Z,16.70
2017-07-03T01:22:43.428Z,16.60
2017-07-03T01:25:09.394Z,16.60
2017-07-03T01:27:36.073Z,16.60
2017-07-03T01:30:02.096Z,16.60
2017-07-03T01:32:28.064Z,16.60
2017-07-03T01:34:54.018Z,16.60
2017-07-03T01:37:20.717Z,16.50
2017-07-03T01:39:46.675Z,16.50
2017-07-03T01:42:12.624Z,16.50
2017-07-03T01:44:38.586Z,16.40
2017-07-03T01:47:04.543Z,16.30
2017-07-03T01:49:30.483Z,16.40
2017-07-03T01:51:56.484Z,16.40
2017-07-03T01:54:22.479Z,16.40
2017-07-03T01:56:49.194Z,16.40
2017-07-03T01:59:15.146Z,16.40
2017-07-03T02:01:41.051Z,16.30
2017-07-03T02:04:07.026Z,16.20
2017-07-03T02:06:33.775Z,16.10
2017-07-03T02:08:59.719Z,16.00
2017-07-03T02:13:58.236Z,15.90
2017-07-03T02:16:24.159Z,15.90
2017-07-03T02:18:50.111Z,15.90
2017-07-03T02:21:16.087Z,15.80
2017-07-03T02:23:42.068Z,15.90
2017-07-03T02:26:08.008Z,15.90
2017-07-03T02:28:33.951Z,15.90
2017-07-03T02:30:59.879Z,15.90
2017-07-03T02:33:25.812Z,15.90
2017-07-03T02:35:51.792Z,15.80
2017-07-03T02:38:17.737Z,15.80
2017-07-03T02:40:43.693Z,15.80
2017-07-03T02:43:09.629Z,15.80
2017-07-03T02:45:35.583Z,15.80
2017-07-03T02:48:01.534Z,15.90
2017-07-03T02:50:27.557Z,15.90
2017-07-03T02:52:53.515Z,16.00
2017-07-03T02:55:19.514Z,16.00
2017-07-03T02:57:46.194Z,15.80
2017-07-03T03:00:12.149Z,15.80
2017-07-03T03:02:38.073Z,15.60
2017-07-03T03:05:04.018Z,15.60
2017-07-03T03:07:29.951Z,15.60
2017-07-03T03:09:55.899Z,15.60
2017-07-03T03:12:21.825Z,15.60
2017-07-03T03:14:47.755Z,15.70
2017-07-03T03:17:13.769Z,15.70
2017-07-03T03:19:40.411Z,15.80
2017-07-03T03:22:06.314Z,15.80
2017-07-03T03:24:32.260Z,15.80
2017-07-03T03:26:58.227Z,15.70
2017-07-03T03:29:24.176Z,15.70
2017-07-03T03:31:50.137Z,15.70
2017-07-03T03:34:16.075Z,15.70
2017-07-03T03:36:42.844Z,15.60
2017-07-03T03:39:09.396Z,15.60
2017-07-03T03:41:35.317Z,15.60
2017-07-03T03:44:01.232Z,15.60
2017-07-03T03:46:27.160Z,15.60
2017-07-03T03:48:53.151Z,15.60
2017-07-03T03:51:19.823Z,15.40
2017-07-03T03:53:45.778Z,15.40
2017-07-03T03:56:11.762Z,15.50
2017-07-03T03:58:37.843Z,15.50
2017-07-03T04:01:03.837Z,15.60
2017-07-03T04:03:29.753Z,15.30
2017-07-03T04:05:55.731Z,15.40
2017-07-03T04:08:21.731Z,15.40
2017-07-03T04:10:47.717Z,15.10
2017-07-03T04:13:13.708Z,15.00
2017-07-03T04:15:39.681Z,14.90
2017-07-03T04:18:05.769Z,14.90
2017-07-03T04:20:31.751Z,14.90
2017-07-03T04:22:57.689Z,15.00
2017-07-03T04:25:23.623Z,15.10
2017-07-03T04:27:49.539Z,15.20
2017-07-03T04:30:15.519Z,15.20
2017-07-03T04:32:41.478Z,15.30
2017-07-03T04:35:07.415Z,15.30
2017-07-03T04:37:33.351Z,15.40
2017-07-03T04:39:59.331Z,15.30
2017-07-03T04:42:25.239Z,15.40
2017-07-03T04:44:51.942Z,15.40
2017-07-03T04:47:17.876Z,15.30
2017-07-03T04:49:43.936Z,15.40
2017-07-03T04:52:09.936Z,15.60
2017-07-03T04:54:35.966Z,15.60
2017-07-03T04:57:01.960Z,15.60
2017-07-03T04:59:28.685Z,15.60
2017-07-03T05:01:54.643Z,15.60
2017-07-03T05:04:21.465Z,15.70
2017-07-03T05:06:47.969Z,15.70
2017-07-03T05:09:16.797Z,15.80
2017-07-03T05:11:43.517Z,15.90
2017-07-03T05:14:09.594Z,15.80
2017-07-03T05:16:35.531Z,15.90
2017-07-03T05:19:01.549Z,15.80
2017-07-03T05:21:27.566Z,15.80
2017-07-03T05:23:53.583Z,15.90
2017-07-03T05:26:19.565Z,15.90
2017-07-03T05:28:45.512Z,15.90
2017-07-03T05:31:11.456Z,15.90
2017-07-03T05:33:37.436Z,16.00
2017-07-03T05:36:03.379Z,16.00
2017-07-03T05:38:29.386Z,16.10
2017-07-03T05:40:55.415Z,16.10
2017-07-03T05:43:27.584Z,16.10
2017-07-03T05:45:53.549Z,16.20
2017-07-03T05:48:19.467Z,16.20
2017-07-03T05:50:45.415Z,16.20
2017-07-03T05:53:11.359Z,16.30
2017-07-03T05:55:37.376Z,16.40
2017-07-03T05:58:03.351Z,16.50
2017-07-03T06:00:29.352Z,16.50
2017-07-03T06:02:55.371Z,16.60
2017-07-03T06:05:24.128Z,16.60
2017-07-03T06:07:50.158Z,16.70
2017-07-03T06:10:16.108Z,16.80
2017-07-03T06:12:42.195Z,16.80
2017-07-03T06:15:08.156Z,16.80
2017-07-03T06:17:34.123Z,16.90
2017-07-03T06:20:00.110Z,16.90
2017-07-03T06:22:27.069Z,17.00
2017-07-03T06:24:53.054Z,17.20
2017-07-03T06:27:19.218Z,17.30
2017-07-03T06:29:45.182Z,17.40
2017-07-03T06:32:11.135Z,17.60
2017-07-03T06:34:37.176Z,17.60
2017-07-03T06:37:03.151Z,17.70
2017-07-03T06:39:29.132Z,17.70
2017-07-03T06:41:55.160Z,17.80
2017-07-03T06:44:21.139Z,18.00
2017-07-03T06:46:47.390Z,18.10
2017-07-03T06:49:14.131Z,18.30
2017-07-03T06:51:40.074Z,18.30
2017-07-03T06:54:06.151Z,18.40
2017-07-03T06:56:32.217Z,18.30
2017-07-03T06:58:58.303Z,18.30
2017-07-03T07:01:24.312Z,18.40
2017-07-03T07:03:50.334Z,18.40
2017-07-03T07:06:17.092Z,18.30
2017-07-03T07:08:43.094Z,18.40
2017-07-03T07:11:09.163Z,18.40
2017-07-03T07:13:35.151Z,18.40
2017-07-03T07:16:01.096Z,18.40
2017-07-03T07:18:27.152Z,18.30
2017-07-03T07:20:54.062Z,18.20
2017-07-03T07:23:20.057Z,18.30
2017-07-03T07:25:46.116Z,18.20
2017-07-03T07:28:12.091Z,18.30
2017-07-03T07:30:38.128Z,18.20
2017-07-03T07:33:04.956Z,18.20
2017-07-03T07:35:30.967Z,18.20
2017-07-03T07:37:56.967Z,18.30
2017-07-03T07:40:22.891Z,18.30
2017-07-03T07:42:49.672Z,18.50
2017-07-03T07:45:15.619Z,18.50
2017-07-03T07:47:41.620Z,18.60
2017-07-03T07:50:07.822Z,18.70
2017-07-03T07:52:33.753Z,18.70
2017-07-03T07:55:00.251Z,18.70
2017-07-03T07:57:26.999Z,18.80
2017-07-03T07:59:52.960Z,18.70
2017-07-03T08:02:18.967Z,18.90
2017-07-03T08:04:44.915Z,19.00
2017-07-03T08:07:10.884Z,19.10
2017-07-03T08:09:36.926Z,19.20
2017-07-03T08:12:02.886Z,19.10
2017-07-03T08:14:28.892Z,18.90
2017-07-03T08:16:54.832Z,18.80
2017-07-03T08:19:20.783Z,18.90
2017-07-03T08:21:46.741Z,19.00
2017-07-03T08:24:12.676Z,18.90
2017-07-03T08:26:38.595Z,19.00
2017-07-03T08:29:04.548Z,18.90
2017-07-03T08:31:30.671Z,18.90
2017-07-03T08:33:56.611Z,18.90
2017-07-03T08:36:22.580Z,18.90
2017-07-03T08:38:48.507Z,18.90
2017-07-03T08:41:14.478Z,19.00
2017-07-03T08:43:40.452Z,19.10
2017-07-03T08:46:06.450Z,19.10
2017-07-03T08:48:32.439Z,19.00
2017-07-03T08:50:58.717Z,19.10
2017-07-03T08:53:24.672Z,19.40
2017-07-03T08:55:50.663Z,19.70
2017-07-03T08:58:16.689Z,19.90
2017-07-03T09:00:42.633Z,20.00
2017-07-03T09:03:08.691Z,19.90
2017-07-03T09:05:34.673Z,20.00
2017-07-03T09:08:00.608Z,20.00
2017-07-03T09:10:26.664Z,20.00
2017-07-03T09:12:52.615Z,20.10
2017-07-03T09:15:18.594Z,20.30
2017-07-03T09:17:44.613Z,20.20
2017-07-03T09:20:11.344Z,19.90
2017-07-03T09:22:39.776Z,19.90
2017-07-03T09:25:05.824Z,20.00
2017-07-03T09:27:31.990Z,20.20
2017-07-03T09:29:57.928Z,20.40
2017-07-03T09:32:23.935Z,20.50
2017-07-03T09:34:49.910Z,20.20
2017-07-03T09:37:15.904Z,20.10
2017-07-03T09:39:41.832Z,20.20
2017-07-03T09:42:07.856Z,20.30
2017-07-03T09:44:34.783Z,20.50
2017-07-03T09:47:00.744Z,20.80
2017-07-03T09:49:26.836Z,20.70
2017-07-03T09:51:52.903Z,20.80
2017-07-03T09:54:22.352Z,20.90
2017-07-03T09:56:48.287Z,20.70
2017-07-03T09:59:15.192Z,20.60
2017-07-03T10:01:41.667Z,20.40
2017-07-03T10:04:07.690Z,20.30
2017-07-03T10:06:33.767Z,20.10
2017-07-03T10:08:59.714Z,20.10
2017-07-03T10:11:25.675Z,20.20
2017-07-03T10:13:51.692Z,20.40
2017-07-03T10:16:17.731Z,20.60
2017-07-03T10:18:43.717Z,20.90
2017-07-03T10:21:09.708Z,21.00
2017-07-03T10:23:35.742Z,21.20
2017-07-03T10:26:01.922Z,21.20
2017-07-03T10:28:27.898Z,21.30
2017-07-03T10:30:53.840Z,21.30
2017-07-03T10:33:19.887Z,21.30
2017-07-03T10:35:45.838Z,21.40
2017-07-03T10:38:11.991Z,21.30
2017-07-03T10:40:37.931Z,21.40
2017-07-03T10:43:04.039Z,21.50
2017-07-03T10:45:30.231Z,21.60
2017-07-03T10:47:56.219Z,21.90
2017-07-03T10:50:22.247Z,21.90
2017-07-03T10:52:48.238Z,21.80
2017-07-03T10:55:14.231Z,21.90
2017-07-03T10:57:41.117Z,22.00
2017-07-03T11:00:07.067Z,22.10
2017-07-03T11:02:33.058Z,22.00
2017-07-03T11:04:58.968Z,22.20
2017-07-03T11:07:25.197Z,22.20
2017-07-03T11:09:51.198Z,22.10
2017-07-03T11:12:17.125Z,22.10
2017-07-03T11:14:43.084Z,22.30
2017-07-03T11:17:09.051Z,22.60
2017-07-03T11:19:35.064Z,22.60
2017-07-03T11:22:01.766Z,22.90
2017-07-03T11:24:27.696Z,22.90
2017-07-03T11:26:53.661Z,22.90
2017-07-03T11:29:19.712Z,22.90
2017-07-03T11:31:45.668Z,23.00
2017-07-03T11:34:11.709Z,23.10
2017-07-03T11:36:37.732Z,23.10
2017-07-03T11:39:04.437Z,23.10
2017-07-03T11:41:30.405Z,23.10
2017-07-03T11:43:56.380Z,23.20
2017-07-03T11:46:22.369Z,23.30
2017-07-03T11:48:48.372Z,23.70
2017-07-03T11:51:14.396Z,23.80
2017-07-03T11:53:41.019Z,23.70
2017-07-03T11:56:09.068Z,23.30
2017-07-03T11:58:35.019Z,23.10
2017-07-03T12:01:01.874Z,23.00
2017-07-03T12:03:27.803Z,23.00
2017-07-03T12:05:54.629Z,23.20
2017-07-03T12:08:20.636Z,23.50
2017-07-03T12:10:46.618Z,23.70
2017-07-03T12:13:12.518Z,23.80
2017-07-03T12:15:38.437Z,23.50
2017-07-03T12:18:04.446Z,23.30
2017-07-03T12:20:30.401Z,23.50
2017-07-03T12:22:56.394Z,24.00
2017-07-03T12:25:22.388Z,24.40
2017-07-03T12:27:48.366Z,24.30
2017-07-03T12:30:14.456Z,24.40
2017-07-03T12:32:40.500Z,24.30
2017-07-03T12:35:06.634Z,24.30
2017-07-03T12:37:32.629Z,24.60
2017-07-03T12:39:58.571Z,24.60
2017-07-03T12:42:24.573Z,24.80
2017-07-03T12:44:50.686Z,25.10
2017-07-03T12:47:18.045Z,25.20
2017-07-03T12:49:45.298Z,25.50
2017-07-03T12:52:11.274Z,25.80
2017-07-03T12:54:38.575Z,25.90
2017-07-03T12:57:04.601Z,25.80
2017-07-03T12:59:30.620Z,25.80
2017-07-03T13:01:57.457Z,25.90
2017-07-03T13:04:24.303Z,26.00
2017-07-03T13:06:51.152Z,26.10
2017-07-03T13:09:17.118Z,26.20
2017-07-03T13:11:43.887Z,26.00
2017-07-03T13:14:09.860Z,25.90
2017-07-03T13:16:36.599Z,26.00
2017-07-03T13:19:02.614Z,26.00
2017-07-03T13:21:29.219Z,25.90
2017-07-03T13:23:55.182Z,25.80
2017-07-03T13:26:21.117Z,25.90
2017-07-03T13:28:47.204Z,25.90
2017-07-03T13:31:14.100Z,26.10
2017-07-03T13:33:40.250Z,26.00
2017-07-03T13:36:06.232Z,26.10
2017-07-03T13:38:32.178Z,26.30
2017-07-03T13:40:58.219Z,26.20
2017-07-03T13:43:24.987Z,26.10
2017-07-03T13:45:50.992Z,26.10
2017-07-03T13:48:16.966Z,26.40
2017-07-03T13:50:42.928Z,26.60
2017-07-03T13:53:08.890Z,27.00
2017-07-03T13:55:34.944Z,26.90
2017-07-03T13:58:00.916Z,26.90
2017-07-03T14:00:26.871Z,26.50
2017-07-03T14:02:52.872Z,26.00
2017-07-03T14:05:18.880Z,25.60
2017-07-03T14:07:44.842Z,25.80
2017-07-03T14:10:11.427Z,26.30
2017-07-03T14:12:37.428Z,26.70
2017-07-03T14:15:03.411Z,26.70
2017-07-03T14:17:29.380Z,26.50
2017-07-03T14:19:55.360Z,26.70
2017-07-03T14:22:21.401Z,26.60
2017-07-03T14:24:47.370Z,26.90
2017-07-03T14:27:13.345Z,26.90
2017-07-03T14:29:40.268Z,26.80
2017-07-03T14:32:06.248Z,26.60
2017-07-03T14:34:32.226Z,26.60
2017-07-03T14:36:58.168Z,26.90
2017-07-03T14:39:24.147Z,27.30
2017-07-03T14:41:50.107Z,27.40
2017-07-03T14:44:16.092Z,27.40
2017-07-03T14:46:42.132Z,27.50
2017-07-03T14:49:08.080Z,27.20
2017-07-03T14:51:34.047Z,27.50
2017-07-03T14:54:00.065Z,27.50
2017-07-03T14:56:26.043Z,27.40
2017-07-03T14:58:52.046Z,27.00
2017-07-03T15:01:18.247Z,26.80
2017-07-03T15:03:44.267Z,26.50
2017-07-03T15:06:10.234Z,26.40
2017-07-03T15:08:36.188Z,26.50
2017-07-03T15:11:02.186Z,26.60
2017-07-03T15:13:28.961Z,26.40
2017-07-03T15:15:55.705Z,26.20
2017-07-03T15:18:21.678Z,26.20
2017-07-03T15:20:47.624Z,26.50
2017-07-03T15:23:13.583Z,27.10
2017-07-03T15:25:39.599Z,27.70
2017-07-03T15:28:05.585Z,28.00
2017-07-03T15:30:32.384Z,27.90
2017-07-03T15:32:58.592Z,27.10
2017-07-03T15:35:24.550Z,26.50
2017-07-03T15:37:50.549Z,26.00
2017-07-03T15:40:17.272Z,25.90
2017-07-03T15:42:43.302Z,25.80
2017-07-03T15:45:09.586Z,25.90
2017-07-03T15:47:35.539Z,26.10
2017-07-03T15:50:01.504Z,26.10
2017-07-03T15:52:27.556Z,25.90
2017-07-03T15:54:54.243Z,25.60
2017-07-03T15:57:20.598Z,25.50
2017-07-03T15:59:46.704Z,25.50
2017-07-03T16:02:12.993Z,25.50
2017-07-03T16:04:38.977Z,25.50
2017-07-03T16:07:05.023Z,25.90
2017-07-03T16:09:31.025Z,26.40
2017-07-03T16:11:57.038Z,26.80
2017-07-03T16:14:22.990Z,26.50
2017-07-03T16:16:48.961Z,26.40
2017-07-03T16:19:15.720Z,26.40
2017-07-03T16:21:41.646Z,26.40
2017-07-03T16:24:07.609Z,26.30
2017-07-03T16:26:33.629Z,26.10
2017-07-03T16:28:59.621Z,26.00
2017-07-03T16:31:25.607Z,26.40
2017-07-03T16:33:52.486Z,26.60
2017-07-03T16:36:18.442Z,26.50
2017-07-03T16:38:44.482Z,26.50
2017-07-03T16:41:10.573Z,26.60
2017-07-03T16:43:36.560Z,26.50
2017-07-03T16:46:02.588Z,26.80
2017-07-03T16:48:28.609Z,27.10
2017-07-03T16:50:54.544Z,27.40
2017-07-03T16:53:20.593Z,27.40
2017-07-03T16:55:46.836Z,27.30
2017-07-03T16:58:12.771Z,26.60
2017-07-03T17:00:38.766Z,26.20
2017-07-03T17:03:04.741Z,25.90
2017-07-03T17:05:30.719Z,25.90
2017-07-03T17:07:56.719Z,25.80
2017-07-03T17:10:22.756Z,25.70
2017-07-03T17:12:48.915Z,25.60
2017-07-03T17:15:14.947Z,25.50
2017-07-03T17:17:41.163Z,25.50
2017-07-03T17:20:07.186Z,25.50
2017-07-03T17:22:34.709Z,25.40
2017-07-03T17:25:00.760Z,25.40
2017-07-03T17:27:26.941Z,25.40
2017-07-03T17:29:53.048Z,25.50
2017-07-03T17:32:19.168Z,25.40
2017-07-03T17:34:45.444Z,25.40
2017-07-03T17:37:11.412Z,25.30
2017-07-03T17:39:38.254Z,25.20
2017-07-03T17:42:04.670Z,25.20
2017-07-03T17:44:32.178Z,25.20
2017-07-03T17:46:58.690Z,25.20
2017-07-03T17:49:24.733Z,25.20
2017-07-03T17:51:50.773Z,25.10
2017-07-03T17:54:17.819Z,25.00
2017-07-03T17:56:43.817Z,25.00
2017-07-03T17:59:09.788Z,25.00
2017-07-03T18:01:36.491Z,25.10
2017-07-03T18:04:02.492Z,25.10
2017-07-03T18:06:28.502Z,25.00
2017-07-03T18:08:54.529Z,24.70
2017-07-03T18:11:20.460Z,24.70
2017-07-03T18:13:46.907Z,24.90
2017-07-03T18:16:14.762Z,25.20
2017-07-03T18:18:42.885Z,25.50
2017-07-03T18:21:08.840Z,25.40
2017-07-03T18:23:35.568Z,25.20
2017-07-03T18:26:01.525Z,25.00
2017-07-03T18:28:27.474Z,25.00
2017-07-03T18:30:53.640Z,25.20
2017-07-03T18:33:19.675Z,25.40
2017-07-03T18:35:46.379Z,25.10
2017-07-03T18:38:13.335Z,24.80
2017-07-03T18:40:39.381Z,24.70
2017-07-03T18:43:07.026Z,24.90
2017-07-03T18:45:33.007Z,25.00
2017-07-03T18:47:59.255Z,25.30
2017-07-03T18:50:27.376Z,25.60
2017-07-03T18:52:54.285Z,25.90
2017-07-03T18:55:21.089Z,26.30
2017-07-03T18:57:47.654Z,26.70
2017-07-03T19:00:13.667Z,26.70
2017-07-03T19:02:39.684Z,26.80
2017-07-03T19:05:06.869Z,27.00
2017-07-03T19:07:32.834Z,27.00
2017-07-03T19:10:04.304Z,26.70
2017-07-03T19:12:31.090Z,25.90
2017-07-03T19:14:57.143Z,24.90
2017-07-03T19:17:23.184Z,24.40
2017-07-03T19:19:49.181Z,24.20
2017-07-03T19:22:15.419Z,24.00
2017-07-03T19:24:41.474Z,23.80
2017-07-03T19:27:08.288Z,23.70
2017-07-03T19:29:34.334Z,23.50
2017-07-03T19:32:00.322Z,23.40
2017-07-03T19:34:26.307Z,23.40
2017-07-03T19:36:52.267Z,23.20
2017-07-03T19:39:18.242Z,23.10
2017-07-03T19:41:44.235Z,23.00
2017-07-03T19:44:10.185Z,23.00
2017-07-03T19:46:36.821Z,23.00
2017-07-03T19:49:02.826Z,22.90
2017-07-03T19:51:28.792Z,22.90
2017-07-03T19:53:54.744Z,22.80
2017-07-03T19:56:20.711Z,22.80
2017-07-03T19:58:46.633Z,22.70
2017-07-03T20:01:12.614Z,22.60
2017-07-03T20:03:38.743Z,22.70
2017-07-03T20:06:04.724Z,22.60
2017-07-03T20:08:30.674Z,22.60
2017-07-03T20:10:56.631Z,22.60
2017-07-03T20:13:22.856Z,22.50
2017-07-03T20:15:48.892Z,22.40
2017-07-03T20:18:15.796Z,22.40
2017-07-03T20:20:41.780Z,22.40
2017-07-03T20:23:08.621Z,22.30
2017-07-03T20:25:34.891Z,22.30
2017-07-03T20:28:01.595Z,22.30
2017-07-03T20:30:27.575Z,22.30
2017-07-03T20:32:53.517Z,22.30
2017-07-03T20:35:19.566Z,22.30
2017-07-03T20:37:45.490Z,22.20
2017-07-03T20:40:11.427Z,22.10
2017-07-03T20:42:37.411Z,22.20
2017-07-03T20:45:03.344Z,22.10
2017-07-03T20:47:29.376Z,22.10
2017-07-03T20:49:55.405Z,22.10
2017-07-03T20:52:21.390Z,22.10
2017-07-03T20:54:47.400Z,22.00
2017-07-03T20:57:13.299Z,22.00
2017-07-03T20:59:39.291Z,22.00
2017-07-03T21:02:05.264Z,21.90
2017-07-03T21:04:32.103Z,21.90
2017-07-03T21:06:58.050Z,21.90
2017-07-03T21:09:23.987Z,22.00
2017-07-03T21:11:49.910Z,21.90
2017-07-03T21:14:16.004Z,21.80
2017-07-03T21:16:41.969Z,21.80
2017-07-03T21:19:08.752Z,21.80
2017-07-03T21:21:35.622Z,21.80
2017-07-03T21:24:01.656Z,21.70
2017-07-03T21:26:28.487Z,21.70
2017-07-03T21:28:54.656Z,21.70
2017-07-03T21:31:21.392Z,21.60
2017-07-03T21:33:47.353Z,21.60
2017-07-03T21:36:13.348Z,21.60
2017-07-03T21:38:39.343Z,21.60
2017-07-03T21:41:05.443Z,21.50
2017-07-03T21:43:31.449Z,21.40
2017-07-03T21:45:57.472Z,21.50
2017-07-03T21:48:23.514Z,21.40
2017-07-03T21:50:49.566Z,21.50
2017-07-03T21:53:15.560Z,21.50
2017-07-03T21:55:41.495Z,21.50
2017-07-03T21:58:07.479Z,21.50
2017-07-03T22:00:33.542Z,21.50
2017-07-03T22:03:01.120Z,21.40
2017-07-03T22:05:27.128Z,21.40
2017-07-03T22:07:54.061Z,21.40
2017-07-03T22:10:19.996Z,21.40
2017-07-03T22:12:46.021Z,21.40
2017-07-03T22:15:12.068Z,21.40
2017-07-03T22:17:38.006Z,21.40
2017-07-03T22:20:04.435Z,21.50
2017-07-03T22:22:30.410Z,21.40
2017-07-03T22:24:56.372Z,21.40
2017-07-03T22:27:22.324Z,21.40
2017-07-03T22:29:48.334Z,21.40
2017-07-03T22:32:14.260Z,21.40
2017-07-03T22:34:40.256Z,21.40
2017-07-03T22:37:06.375Z,21.40
2017-07-03T22:39:32.335Z,21.40
2017-07-03T22:41:58.317Z,21.50
2017-07-03T22:44:24.272Z,21.50
2017-07-03T22:46:50.251Z,21.40
2017-07-03T22:49:16.902Z,21.40
2017-07-03T22:51:42.850Z,21.40
2017-07-03T22:54:08.799Z,21.50
2017-07-03T22:56:34.766Z,21.50
2017-07-03T22:59:01.104Z,21.40
2017-07-03T23:01:27.175Z,21.30
2017-07-03T23:03:53.158Z,21.30
2017-07-03T23:06:19.096Z,21.30
2017-07-03T23:08:45.029Z,21.20
2017-07-03T23:11:10.999Z,21.20
2017-07-03T23:13:37.662Z,20.80
2017-07-03T23:16:03.610Z,20.80
2017-07-03T23:18:29.577Z,20.70
2017-07-03T23:20:56.347Z,20.60
2017-07-03T23:23:22.314Z,20.50
2017-07-03T23:25:49.310Z,20.50
2017-07-03T23:28:16.590Z,20.50
2017-07-03T23:30:42.549Z,20.50
2017-07-03T23:33:08.502Z,20.50
2017-07-03T23:35:35.401Z,20.40
2017-07-03T23:38:01.464Z,20.40
2017-07-03T23:40:27.445Z,20.30
2017-07-03T23:42:53.469Z,20.30
2017-07-03T23:45:20.166Z,20.30
2017-07-03T23:47:46.152Z,20.20
2017-07-03T23:50:12.101Z,20.20
2017-07-03T23:52:38.041Z,20.10
2017-07-03T23:55:04.027Z,20.20
2017-07-03T23:57:29.966Z,20.20
2017-07-03T23:59:55.913Z,20.20
